sensor_id;sensor_type;location;lat;lon;timestamp;P1;durP1;ratioP1;P2;durP2;ratioP2
18947;SDS011;9607;51.600;7.558;2024-01-11T00:00:02;40.97;;;21.73;;
18947;SDS011;9607;51.600;7.558;2024-01-11T00:02:30;36.27;;;19.83;;
18947;SDS011;9607;51.600;7.558;2024-01-11T00:04:57;39.30;;;20.70;;
18947;SDS011;9607;51.600;7.558;2024-01-11T00:07:24;38.97;;;21.57;;
18947;SDS011;9607;51.600;7.558;2024-01-11T00:09:51;41.63;;;20.83;;
18947;SDS011;9607;51.600;7.558;2024-01-11T00:12:18;38.87;;;20.43;;
18947;SDS011;9607;51.600;7.558;2024-01-11T00:14:44;44.73;;;22.83;;
18947;SDS011;9607;51.600;7.558;2024-01-11T00:17:11;49.03;;;23.93;;
18947;SDS011;9607;51.600;7.558;2024-01-11T00:19:38;41.80;;;21.63;;
18947;SDS011;9607;51.600;7.558;2024-01-11T00:22:05;39.27;;;21.80;;
18947;SDS011;9607;51.600;7.558;2024-01-11T00:24:32;38.80;;;19.90;;
18947;SDS011;9607;51.600;7.558;2024-01-11T00:26:59;33.93;;;18.93;;
18947;SDS011;9607;51.600;7.558;2024-01-11T00:29:26;39.77;;;20.60;;
18947;SDS011;9607;51.600;7.558;2024-01-11T00:31:53;34.53;;;18.60;;
18947;SDS011;9607;51.600;7.558;2024-01-11T00:34:20;42.73;;;20.80;;
18947;SDS011;9607;51.600;7.558;2024-01-11T00:36:49;41.67;;;22.33;;
18947;SDS011;9607;51.600;7.558;2024-01-11T00:39:15;41.07;;;22.10;;
18947;SDS011;9607;51.600;7.558;2024-01-11T00:41:42;40.30;;;20.60;;
18947;SDS011;9607;51.600;7.558;2024-01-11T00:44:09;38.33;;;20.10;;
18947;SDS011;9607;51.600;7.558;2024-01-11T00:46:36;35.30;;;19.70;;
18947;SDS011;9607;51.600;7.558;2024-01-11T00:49:03;37.57;;;19.80;;
18947;SDS011;9607;51.600;7.558;2024-01-11T00:51:30;39.27;;;19.50;;
18947;SDS011;9607;51.600;7.558;2024-01-11T00:53:58;34.33;;;18.70;;
18947;SDS011;9607;51.600;7.558;2024-01-11T00:56:25;44.43;;;23.20;;
18947;SDS011;9607;51.600;7.558;2024-01-11T00:58:52;47.60;;;22.70;;
18947;SDS011;9607;51.600;7.558;2024-01-11T01:01:19;44.53;;;23.57;;
18947;SDS011;9607;51.600;7.558;2024-01-11T01:03:45;40.07;;;21.13;;
18947;SDS011;9607;51.600;7.558;2024-01-11T01:06:12;43.83;;;22.07;;
18947;SDS011;9607;51.600;7.558;2024-01-11T01:08:39;40.00;;;20.10;;
18947;SDS011;9607;51.600;7.558;2024-01-11T01:11:07;43.20;;;22.70;;
18947;SDS011;9607;51.600;7.558;2024-01-11T01:13:34;46.77;;;23.03;;
18947;SDS011;9607;51.600;7.558;2024-01-11T01:16:01;47.63;;;23.27;;
18947;SDS011;9607;51.600;7.558;2024-01-11T01:18:28;49.23;;;22.70;;
18947;SDS011;9607;51.600;7.558;2024-01-11T01:20:54;47.83;;;22.77;;
18947;SDS011;9607;51.600;7.558;2024-01-11T01:23:21;52.50;;;25.63;;
18947;SDS011;9607;51.600;7.558;2024-01-11T01:25:48;48.87;;;23.43;;
18947;SDS011;9607;51.600;7.558;2024-01-11T01:28:17;43.83;;;22.70;;
18947;SDS011;9607;51.600;7.558;2024-01-11T01:30:43;45.50;;;23.37;;
18947;SDS011;9607;51.600;7.558;2024-01-11T01:33:10;38.27;;;21.13;;
18947;SDS011;9607;51.600;7.558;2024-01-11T01:35:37;39.70;;;21.70;;
18947;SDS011;9607;51.600;7.558;2024-01-11T01:38:04;42.10;;;21.90;;
18947;SDS011;9607;51.600;7.558;2024-01-11T01:40:30;43.07;;;22.80;;
18947;SDS011;9607;51.600;7.558;2024-01-11T01:42:57;41.10;;;21.37;;
18947;SDS011;9607;51.600;7.558;2024-01-11T01:45:26;42.67;;;21.77;;
18947;SDS011;9607;51.600;7.558;2024-01-11T01:47:53;38.90;;;19.57;;
18947;SDS011;9607;51.600;7.558;2024-01-11T01:50:21;38.10;;;20.63;;
18947;SDS011;9607;51.600;7.558;2024-01-11T01:52:48;45.90;;;22.53;;
18947;SDS011;9607;51.600;7.558;2024-01-11T01:55:16;46.80;;;23.00;;
18947;SDS011;9607;51.600;7.558;2024-01-11T01:57:44;45.73;;;22.70;;
18947;SDS011;9607;51.600;7.558;2024-01-11T02:00:13;41.90;;;21.43;;
18947;SDS011;9607;51.600;7.558;2024-01-11T02:02:42;40.80;;;20.70;;
18947;SDS011;9607;51.600;7.558;2024-01-11T02:05:11;42.67;;;22.07;;
18947;SDS011;9607;51.600;7.558;2024-01-11T02:07:38;42.20;;;22.20;;
18947;SDS011;9607;51.600;7.558;2024-01-11T02:10:06;43.47;;;22.30;;
18947;SDS011;9607;51.600;7.558;2024-01-11T02:12:34;45.57;;;22.90;;
18947;SDS011;9607;51.600;7.558;2024-01-11T02:15:02;45.33;;;23.07;;
18947;SDS011;9607;51.600;7.558;2024-01-11T02:17:30;45.83;;;22.47;;
18947;SDS011;9607;51.600;7.558;2024-01-11T02:19:59;45.27;;;21.70;;
18947;SDS011;9607;51.600;7.558;2024-01-11T02:22:28;42.47;;;21.33;;
18947;SDS011;9607;51.600;7.558;2024-01-11T02:25:06;40.43;;;20.10;;
18947;SDS011;9607;51.600;7.558;2024-01-11T02:27:44;47.03;;;24.50;;
18947;SDS011;9607;51.600;7.558;2024-01-11T02:30:12;44.53;;;22.53;;
18947;SDS011;9607;51.600;7.558;2024-01-11T02:32:39;48.43;;;26.13;;
18947;SDS011;9607;51.600;7.558;2024-01-11T02:35:06;53.90;;;26.07;;
18947;SDS011;9607;51.600;7.558;2024-01-11T02:37:33;44.57;;;23.70;;
18947;SDS011;9607;51.600;7.558;2024-01-11T02:40:01;45.43;;;22.87;;
18947;SDS011;9607;51.600;7.558;2024-01-11T02:42:31;41.37;;;22.47;;
18947;SDS011;9607;51.600;7.558;2024-01-11T02:44:58;46.37;;;22.17;;
18947;SDS011;9607;51.600;7.558;2024-01-11T02:47:25;42.13;;;21.53;;
18947;SDS011;9607;51.600;7.558;2024-01-11T02:49:52;43.93;;;21.93;;
18947;SDS011;9607;51.600;7.558;2024-01-11T02:52:19;44.57;;;21.03;;
18947;SDS011;9607;51.600;7.558;2024-01-11T02:54:45;42.67;;;21.67;;
18947;SDS011;9607;51.600;7.558;2024-01-11T02:57:12;46.20;;;23.30;;
18947;SDS011;9607;51.600;7.558;2024-01-11T02:59:43;46.77;;;22.23;;
18947;SDS011;9607;51.600;7.558;2024-01-11T03:02:10;45.73;;;23.27;;
18947;SDS011;9607;51.600;7.558;2024-01-11T03:04:37;43.47;;;23.70;;
18947;SDS011;9607;51.600;7.558;2024-01-11T03:07:04;45.77;;;24.33;;
18947;SDS011;9607;51.600;7.558;2024-01-11T03:09:30;45.63;;;22.67;;
18947;SDS011;9607;51.600;7.558;2024-01-11T03:11:58;45.90;;;22.30;;
18947;SDS011;9607;51.600;7.558;2024-01-11T03:14:25;41.73;;;21.60;;
18947;SDS011;9607;51.600;7.558;2024-01-11T03:16:53;45.43;;;22.67;;
18947;SDS011;9607;51.600;7.558;2024-01-11T03:19:20;41.00;;;20.67;;
18947;SDS011;9607;51.600;7.558;2024-01-11T03:21:47;53.07;;;25.27;;
18947;SDS011;9607;51.600;7.558;2024-01-11T03:24:14;43.37;;;22.87;;
18947;SDS011;9607;51.600;7.558;2024-01-11T03:26:41;51.70;;;25.07;;
18947;SDS011;9607;51.600;7.558;2024-01-11T03:29:07;42.90;;;21.63;;
18947;SDS011;9607;51.600;7.558;2024-01-11T03:31:34;47.97;;;23.97;;
18947;SDS011;9607;51.600;7.558;2024-01-11T03:34:04;53.03;;;26.33;;
18947;SDS011;9607;51.600;7.558;2024-01-11T03:36:31;51.17;;;26.47;;
18947;SDS011;9607;51.600;7.558;2024-01-11T03:38:58;53.17;;;25.47;;
18947;SDS011;9607;51.600;7.558;2024-01-11T03:41:24;50.63;;;25.27;;
18947;SDS011;9607;51.600;7.558;2024-01-11T03:43:51;55.53;;;25.20;;
18947;SDS011;9607;51.600;7.558;2024-01-11T03:46:18;42.43;;;23.73;;
18947;SDS011;9607;51.600;7.558;2024-01-11T03:48:45;49.47;;;25.50;;
18947;SDS011;9607;51.600;7.558;2024-01-11T03:51:13;54.73;;;27.57;;
18947;SDS011;9607;51.600;7.558;2024-01-11T03:53:40;53.03;;;26.47;;
18947;SDS011;9607;51.600;7.558;2024-01-11T03:56:07;47.27;;;24.27;;
18947;SDS011;9607;51.600;7.558;2024-01-11T03:58:35;51.07;;;24.93;;
18947;SDS011;9607;51.600;7.558;2024-01-11T04:01:04;52.40;;;26.20;;
18947;SDS011;9607;51.600;7.558;2024-01-11T04:03:32;46.57;;;24.20;;
18947;SDS011;9607;51.600;7.558;2024-01-11T04:05:59;57.13;;;27.60;;
18947;SDS011;9607;51.600;7.558;2024-01-11T04:08:27;52.80;;;26.87;;
18947;SDS011;9607;51.600;7.558;2024-01-11T04:10:54;55.23;;;26.40;;
18947;SDS011;9607;51.600;7.558;2024-01-11T04:13:21;52.63;;;25.40;;
18947;SDS011;9607;51.600;7.558;2024-01-11T04:15:47;49.13;;;24.17;;
18947;SDS011;9607;51.600;7.558;2024-01-11T04:18:14;47.03;;;24.77;;
18947;SDS011;9607;51.600;7.558;2024-01-11T04:20:41;53.10;;;27.70;;
18947;SDS011;9607;51.600;7.558;2024-01-11T04:23:08;63.67;;;27.73;;
18947;SDS011;9607;51.600;7.558;2024-01-11T04:25:36;49.37;;;25.83;;
18947;SDS011;9607;51.600;7.558;2024-01-11T04:28:03;48.33;;;23.13;;
18947;SDS011;9607;51.600;7.558;2024-01-11T04:30:31;45.03;;;23.63;;
18947;SDS011;9607;51.600;7.558;2024-01-11T04:32:57;44.87;;;23.20;;
18947;SDS011;9607;51.600;7.558;2024-01-11T04:35:24;47.37;;;23.03;;
18947;SDS011;9607;51.600;7.558;2024-01-11T04:37:54;42.20;;;21.73;;
18947;SDS011;9607;51.600;7.558;2024-01-11T04:40:21;43.73;;;21.60;;
18947;SDS011;9607;51.600;7.558;2024-01-11T04:42:49;39.73;;;20.73;;
18947;SDS011;9607;51.600;7.558;2024-01-11T04:45:16;47.80;;;23.70;;
18947;SDS011;9607;51.600;7.558;2024-01-11T04:47:43;45.90;;;21.83;;
18947;SDS011;9607;51.600;7.558;2024-01-11T04:50:10;42.00;;;20.93;;
18947;SDS011;9607;51.600;7.558;2024-01-11T04:52:37;52.07;;;25.27;;
18947;SDS011;9607;51.600;7.558;2024-01-11T04:55:04;48.23;;;25.60;;
18947;SDS011;9607;51.600;7.558;2024-01-11T04:57:32;49.00;;;24.13;;
18947;SDS011;9607;51.600;7.558;2024-01-11T05:00:00;45.83;;;24.80;;
18947;SDS011;9607;51.600;7.558;2024-01-11T05:02:27;47.73;;;23.43;;
18947;SDS011;9607;51.600;7.558;2024-01-11T05:04:54;43.03;;;21.20;;
18947;SDS011;9607;51.600;7.558;2024-01-11T05:07:21;47.70;;;24.10;;
18947;SDS011;9607;51.600;7.558;2024-01-11T05:09:47;49.17;;;23.80;;
18947;SDS011;9607;51.600;7.558;2024-01-11T05:12:14;54.93;;;27.27;;
18947;SDS011;9607;51.600;7.558;2024-01-11T05:14:41;63.20;;;28.57;;
18947;SDS011;9607;51.600;7.558;2024-01-11T05:17:09;57.33;;;25.97;;
18947;SDS011;9607;51.600;7.558;2024-01-11T05:19:36;58.07;;;25.93;;
18947;SDS011;9607;51.600;7.558;2024-01-11T05:22:03;47.13;;;23.33;;
18947;SDS011;9607;51.600;7.558;2024-01-11T05:24:30;42.53;;;22.47;;
18947;SDS011;9607;51.600;7.558;2024-01-11T05:26:58;55.30;;;27.10;;
18947;SDS011;9607;51.600;7.558;2024-01-11T05:29:25;54.87;;;27.40;;
18947;SDS011;9607;51.600;7.558;2024-01-11T05:31:52;59.60;;;29.13;;
18947;SDS011;9607;51.600;7.558;2024-01-11T05:34:20;61.40;;;27.27;;
18947;SDS011;9607;51.600;7.558;2024-01-11T05:36:47;65.47;;;29.63;;
18947;SDS011;9607;51.600;7.558;2024-01-11T05:39:14;60.93;;;30.27;;
18947;SDS011;9607;51.600;7.558;2024-01-11T05:41:43;57.77;;;27.63;;
18947;SDS011;9607;51.600;7.558;2024-01-11T05:44:10;64.63;;;29.07;;
18947;SDS011;9607;51.600;7.558;2024-01-11T05:46:36;59.17;;;28.63;;
18947;SDS011;9607;51.600;7.558;2024-01-11T05:49:03;56.60;;;27.97;;
18947;SDS011;9607;51.600;7.558;2024-01-11T05:51:32;53.20;;;26.40;;
18947;SDS011;9607;51.600;7.558;2024-01-11T05:53:59;48.37;;;24.27;;
18947;SDS011;9607;51.600;7.558;2024-01-11T05:56:26;51.67;;;25.57;;
18947;SDS011;9607;51.600;7.558;2024-01-11T05:58:52;47.43;;;24.27;;
18947;SDS011;9607;51.600;7.558;2024-01-11T06:01:19;47.63;;;24.57;;
18947;SDS011;9607;51.600;7.558;2024-01-11T06:03:46;43.67;;;22.93;;
18947;SDS011;9607;51.600;7.558;2024-01-11T06:06:13;46.27;;;23.23;;
18947;SDS011;9607;51.600;7.558;2024-01-11T06:08:41;53.37;;;26.77;;
18947;SDS011;9607;51.600;7.558;2024-01-11T06:11:08;52.67;;;25.50;;
18947;SDS011;9607;51.600;7.558;2024-01-11T06:13:35;52.00;;;25.60;;
18947;SDS011;9607;51.600;7.558;2024-01-11T06:16:02;50.07;;;25.13;;
18947;SDS011;9607;51.600;7.558;2024-01-11T06:18:29;46.50;;;24.50;;
18947;SDS011;9607;51.600;7.558;2024-01-11T06:20:56;59.30;;;29.07;;
18947;SDS011;9607;51.600;7.558;2024-01-11T06:23:24;54.93;;;26.53;;
18947;SDS011;9607;51.600;7.558;2024-01-11T06:25:52;51.77;;;25.87;;
18947;SDS011;9607;51.600;7.558;2024-01-11T06:28:19;49.70;;;26.17;;
18947;SDS011;9607;51.600;7.558;2024-01-11T06:30:46;48.93;;;23.70;;
18947;SDS011;9607;51.600;7.558;2024-01-11T06:33:13;57.53;;;26.33;;
18947;SDS011;9607;51.600;7.558;2024-01-11T06:35:40;51.70;;;26.40;;
18947;SDS011;9607;51.600;7.558;2024-01-11T06:40:38;54.33;;;26.37;;
18947;SDS011;9607;51.600;7.558;2024-01-11T06:43:06;56.87;;;27.10;;
18947;SDS011;9607;51.600;7.558;2024-01-11T06:45:33;51.73;;;25.07;;
18947;SDS011;9607;51.600;7.558;2024-01-11T06:48:00;50.27;;;24.47;;
18947;SDS011;9607;51.600;7.558;2024-01-11T06:50:27;54.33;;;25.80;;
18947;SDS011;9607;51.600;7.558;2024-01-11T06:52:53;48.30;;;25.53;;
18947;SDS011;9607;51.600;7.558;2024-01-11T06:55:20;48.50;;;23.53;;
18947;SDS011;9607;51.600;7.558;2024-01-11T06:57:47;47.27;;;23.93;;
18947;SDS011;9607;51.600;7.558;2024-01-11T07:00:15;50.73;;;24.50;;
18947;SDS011;9607;51.600;7.558;2024-01-11T07:02:42;55.47;;;26.33;;
18947;SDS011;9607;51.600;7.558;2024-01-11T07:05:09;49.93;;;24.17;;
18947;SDS011;9607;51.600;7.558;2024-01-11T07:07:35;49.27;;;23.50;;
18947;SDS011;9607;51.600;7.558;2024-01-11T07:10:02;43.80;;;23.63;;
18947;SDS011;9607;51.600;7.558;2024-01-11T07:12:30;45.73;;;23.47;;
18947;SDS011;9607;51.600;7.558;2024-01-11T07:14:57;46.90;;;24.07;;
18947;SDS011;9607;51.600;7.558;2024-01-11T07:17:25;52.97;;;26.77;;
18947;SDS011;9607;51.600;7.558;2024-01-11T07:19:52;54.77;;;26.43;;
18947;SDS011;9607;51.600;7.558;2024-01-11T07:22:19;56.63;;;27.30;;
18947;SDS011;9607;51.600;7.558;2024-01-11T07:24:45;51.37;;;26.83;;
18947;SDS011;9607;51.600;7.558;2024-01-11T07:27:12;55.60;;;26.97;;
18947;SDS011;9607;51.600;7.558;2024-01-11T07:29:39;52.93;;;26.23;;
18947;SDS011;9607;51.600;7.558;2024-01-11T07:32:05;52.57;;;24.47;;
18947;SDS011;9607;51.600;7.558;2024-01-11T07:34:33;51.20;;;26.00;;
18947;SDS011;9607;51.600;7.558;2024-01-11T07:37:01;62.53;;;30.63;;
18947;SDS011;9607;51.600;7.558;2024-01-11T07:39:28;59.77;;;29.63;;
18947;SDS011;9607;51.600;7.558;2024-01-11T07:41:56;63.83;;;32.40;;
18947;SDS011;9607;51.600;7.558;2024-01-11T07:44:23;56.13;;;28.20;;
18947;SDS011;9607;51.600;7.558;2024-01-11T07:46:49;54.90;;;26.73;;
18947;SDS011;9607;51.600;7.558;2024-01-11T07:49:16;59.30;;;28.23;;
18947;SDS011;9607;51.600;7.558;2024-01-11T07:51:44;49.77;;;25.67;;
18947;SDS011;9607;51.600;7.558;2024-01-11T07:54:11;48.40;;;25.43;;
18947;SDS011;9607;51.600;7.558;2024-01-11T07:56:38;51.47;;;25.47;;
18947;SDS011;9607;51.600;7.558;2024-01-11T07:59:05;57.17;;;28.60;;
18947;SDS011;9607;51.600;7.558;2024-01-11T08:01:32;56.63;;;28.57;;
18947;SDS011;9607;51.600;7.558;2024-01-11T08:04:00;52.70;;;26.67;;
18947;SDS011;9607;51.600;7.558;2024-01-11T08:06:27;61.17;;;29.60;;
18947;SDS011;9607;51.600;7.558;2024-01-11T08:08:55;73.00;;;33.10;;
18947;SDS011;9607;51.600;7.558;2024-01-11T08:11:22;66.63;;;33.03;;
18947;SDS011;9607;51.600;7.558;2024-01-11T08:13:49;68.63;;;31.67;;
18947;SDS011;9607;51.600;7.558;2024-01-11T08:16:18;67.33;;;31.80;;
18947;SDS011;9607;51.600;7.558;2024-01-11T08:18:45;57.63;;;28.93;;
18947;SDS011;9607;51.600;7.558;2024-01-11T08:21:13;58.23;;;29.00;;
18947;SDS011;9607;51.600;7.558;2024-01-11T08:23:40;60.60;;;28.37;;
18947;SDS011;9607;51.600;7.558;2024-01-11T08:26:11;54.83;;;28.10;;
18947;SDS011;9607;51.600;7.558;2024-01-11T08:28:38;59.03;;;28.80;;
18947;SDS011;9607;51.600;7.558;2024-01-11T08:31:06;66.57;;;31.93;;
18947;SDS011;9607;51.600;7.558;2024-01-11T08:33:32;62.80;;;31.23;;
18947;SDS011;9607;51.600;7.558;2024-01-11T08:36:01;60.57;;;30.67;;
18947;SDS011;9607;51.600;7.558;2024-01-11T08:38:28;60.93;;;28.50;;
18947;SDS011;9607;51.600;7.558;2024-01-11T08:40:55;67.60;;;33.67;;
18947;SDS011;9607;51.600;7.558;2024-01-11T08:43:24;69.57;;;33.67;;
18947;SDS011;9607;51.600;7.558;2024-01-11T08:45:51;59.87;;;30.87;;
18947;SDS011;9607;51.600;7.558;2024-01-11T08:48:19;63.30;;;33.13;;
18947;SDS011;9607;51.600;7.558;2024-01-11T08:50:46;61.97;;;31.03;;
18947;SDS011;9607;51.600;7.558;2024-01-11T08:53:12;65.80;;;32.57;;
18947;SDS011;9607;51.600;7.558;2024-01-11T08:55:40;64.10;;;33.43;;
18947;SDS011;9607;51.600;7.558;2024-01-11T08:58:07;62.97;;;32.97;;
18947;SDS011;9607;51.600;7.558;2024-01-11T09:00:35;64.10;;;32.77;;
18947;SDS011;9607;51.600;7.558;2024-01-11T09:03:02;63.43;;;32.13;;
18947;SDS011;9607;51.600;7.558;2024-01-11T09:05:30;64.07;;;33.13;;
18947;SDS011;9607;51.600;7.558;2024-01-11T09:07:56;53.60;;;29.90;;
18947;SDS011;9607;51.600;7.558;2024-01-11T09:10:23;56.30;;;28.87;;
18947;SDS011;9607;51.600;7.558;2024-01-11T09:12:50;57.97;;;30.43;;
18947;SDS011;9607;51.600;7.558;2024-01-11T09:15:17;54.27;;;29.00;;
18947;SDS011;9607;51.600;7.558;2024-01-11T09:17:45;50.03;;;27.50;;
18947;SDS011;9607;51.600;7.558;2024-01-11T09:20:12;49.73;;;27.67;;
18947;SDS011;9607;51.600;7.558;2024-01-11T09:22:39;49.43;;;26.13;;
18947;SDS011;9607;51.600;7.558;2024-01-11T09:25:06;49.53;;;26.17;;
18947;SDS011;9607;51.600;7.558;2024-01-11T09:27:33;55.00;;;28.33;;
18947;SDS011;9607;51.600;7.558;2024-01-11T09:30:00;51.03;;;27.73;;
18947;SDS011;9607;51.600;7.558;2024-01-11T09:32:27;53.37;;;26.40;;
18947;SDS011;9607;51.600;7.558;2024-01-11T09:34:57;44.77;;;25.07;;
18947;SDS011;9607;51.600;7.558;2024-01-11T09:37:24;45.87;;;24.73;;
18947;SDS011;9607;51.600;7.558;2024-01-11T09:39:51;43.57;;;24.70;;
18947;SDS011;9607;51.600;7.558;2024-01-11T09:42:17;46.60;;;25.57;;
18947;SDS011;9607;51.600;7.558;2024-01-11T09:44:44;50.40;;;27.70;;
18947;SDS011;9607;51.600;7.558;2024-01-11T09:47:12;50.47;;;27.07;;
18947;SDS011;9607;51.600;7.558;2024-01-11T09:49:40;48.87;;;25.43;;
18947;SDS011;9607;51.600;7.558;2024-01-11T09:52:10;48.83;;;27.53;;
18947;SDS011;9607;51.600;7.558;2024-01-11T09:54:39;49.93;;;27.50;;
18947;SDS011;9607;51.600;7.558;2024-01-11T09:57:06;50.37;;;27.87;;
18947;SDS011;9607;51.600;7.558;2024-01-11T09:59:35;52.73;;;28.57;;
18947;SDS011;9607;51.600;7.558;2024-01-11T10:02:02;54.37;;;27.17;;
18947;SDS011;9607;51.600;7.558;2024-01-11T10:04:33;55.17;;;28.33;;
18947;SDS011;9607;51.600;7.558;2024-01-11T10:07:00;53.80;;;28.93;;
18947;SDS011;9607;51.600;7.558;2024-01-11T10:09:31;53.53;;;29.27;;
18947;SDS011;9607;51.600;7.558;2024-01-11T10:11:58;45.07;;;27.03;;
18947;SDS011;9607;51.600;7.558;2024-01-11T10:14:25;48.27;;;25.87;;
18947;SDS011;9607;51.600;7.558;2024-01-11T10:16:53;39.53;;;23.60;;
18947;SDS011;9607;51.600;7.558;2024-01-11T10:19:20;38.93;;;23.90;;
18947;SDS011;9607;51.600;7.558;2024-01-11T10:21:48;45.00;;;23.73;;
18947;SDS011;9607;51.600;7.558;2024-01-11T10:24:17;41.80;;;24.43;;
18947;SDS011;9607;51.600;7.558;2024-01-11T10:26:46;45.30;;;26.03;;
18947;SDS011;9607;51.600;7.558;2024-01-11T10:29:13;39.00;;;23.37;;
18947;SDS011;9607;51.600;7.558;2024-01-11T10:31:40;45.60;;;25.07;;
18947;SDS011;9607;51.600;7.558;2024-01-11T10:34:07;45.57;;;24.40;;
18947;SDS011;9607;51.600;7.558;2024-01-11T10:36:34;47.37;;;25.73;;
18947;SDS011;9607;51.600;7.558;2024-01-11T10:39:02;49.70;;;26.70;;
18947;SDS011;9607;51.600;7.558;2024-01-11T10:41:31;40.70;;;25.00;;
18947;SDS011;9607;51.600;7.558;2024-01-11T10:44:04;43.97;;;24.53;;
18947;SDS011;9607;51.600;7.558;2024-01-11T10:46:38;48.20;;;25.57;;
18947;SDS011;9607;51.600;7.558;2024-01-11T10:49:05;44.20;;;25.10;;
18947;SDS011;9607;51.600;7.558;2024-01-11T10:51:34;46.23;;;25.17;;
18947;SDS011;9607;51.600;7.558;2024-01-11T10:54:00;42.97;;;25.13;;
18947;SDS011;9607;51.600;7.558;2024-01-11T10:56:29;44.27;;;24.70;;
18947;SDS011;9607;51.600;7.558;2024-01-11T10:58:58;48.03;;;25.58;;
18947;SDS011;9607;51.600;7.558;2024-01-11T11:01:27;43.13;;;24.48;;
18947;SDS011;9607;51.600;7.558;2024-01-11T11:03:55;38.20;;;22.75;;
18947;SDS011;9607;51.600;7.558;2024-01-11T11:06:23;40.97;;;23.38;;
18947;SDS011;9607;51.600;7.558;2024-01-11T11:08:51;36.80;;;23.02;;
18947;SDS011;9607;51.600;7.558;2024-01-11T11:11:19;41.05;;;23.63;;
18947;SDS011;9607;51.600;7.558;2024-01-11T11:13:47;35.28;;;23.65;;
18947;SDS011;9607;51.600;7.558;2024-01-11T11:16:14;36.38;;;22.40;;
18947;SDS011;9607;51.600;7.558;2024-01-11T11:18:42;45.47;;;26.05;;
18947;SDS011;9607;51.600;7.558;2024-01-11T11:21:09;40.38;;;23.30;;
18947;SDS011;9607;51.600;7.558;2024-01-11T11:23:37;46.05;;;24.38;;
18947;SDS011;9607;51.600;7.558;2024-01-11T11:26:05;42.08;;;23.65;;
18947;SDS011;9607;51.600;7.558;2024-01-11T11:28:33;44.90;;;25.75;;
18947;SDS011;9607;51.600;7.558;2024-01-11T11:31:01;47.92;;;26.00;;
18947;SDS011;9607;51.600;7.558;2024-01-11T11:33:29;39.58;;;23.17;;
18947;SDS011;9607;51.600;7.558;2024-01-11T11:35:58;45.45;;;26.92;;
18947;SDS011;9607;51.600;7.558;2024-01-11T11:38:26;45.90;;;26.45;;
18947;SDS011;9607;51.600;7.558;2024-01-11T11:40:54;42.83;;;24.60;;
18947;SDS011;9607;51.600;7.558;2024-01-11T11:43:22;41.75;;;23.95;;
18947;SDS011;9607;51.600;7.558;2024-01-11T11:45:50;40.05;;;22.52;;
18947;SDS011;9607;51.600;7.558;2024-01-11T11:51:18;38.42;;;22.52;;
18947;SDS011;9607;51.600;7.558;2024-01-11T11:53:46;38.80;;;22.33;;
18947;SDS011;9607;51.600;7.558;2024-01-11T11:56:15;39.38;;;23.50;;
18947;SDS011;9607;51.600;7.558;2024-01-11T11:58:44;32.10;;;20.00;;
18947;SDS011;9607;51.600;7.558;2024-01-11T12:01:11;36.25;;;21.85;;
18947;SDS011;9607;51.600;7.558;2024-01-11T12:03:40;40.88;;;22.55;;
18947;SDS011;9607;51.600;7.558;2024-01-11T12:06:08;36.03;;;21.90;;
18947;SDS011;9607;51.600;7.558;2024-01-11T12:08:37;42.05;;;23.10;;
18947;SDS011;9607;51.600;7.558;2024-01-11T12:11:05;35.28;;;21.00;;
18947;SDS011;9607;51.600;7.558;2024-01-11T12:13:32;38.97;;;22.23;;
18947;SDS011;9607;51.600;7.558;2024-01-11T12:15:59;35.22;;;20.23;;
18947;SDS011;9607;51.600;7.558;2024-01-11T12:18:26;36.55;;;19.05;;
18947;SDS011;9607;51.600;7.558;2024-01-11T12:20:52;30.98;;;17.20;;
18947;SDS011;9607;51.600;7.558;2024-01-11T12:23:19;29.08;;;18.33;;
18947;SDS011;9607;51.600;7.558;2024-01-11T12:25:47;29.67;;;17.40;;
18947;SDS011;9607;51.600;7.558;2024-01-11T12:28:14;29.38;;;17.50;;
18947;SDS011;9607;51.600;7.558;2024-01-11T12:30:42;28.90;;;16.90;;
18947;SDS011;9607;51.600;7.558;2024-01-11T12:33:09;25.65;;;16.00;;
18947;SDS011;9607;51.600;7.558;2024-01-11T12:35:36;24.58;;;15.15;;
18947;SDS011;9607;51.600;7.558;2024-01-11T12:38:04;22.73;;;14.50;;
18947;SDS011;9607;51.600;7.558;2024-01-11T12:40:32;24.00;;;14.55;;
18947;SDS011;9607;51.600;7.558;2024-01-11T12:43:01;23.15;;;13.85;;
18947;SDS011;9607;51.600;7.558;2024-01-11T12:45:27;23.92;;;14.55;;
18947;SDS011;9607;51.600;7.558;2024-01-11T12:47:57;22.55;;;13.73;;
18947;SDS011;9607;51.600;7.558;2024-01-11T12:50:24;25.70;;;16.30;;
18947;SDS011;9607;51.600;7.558;2024-01-11T12:53:04;22.55;;;13.90;;
18947;SDS011;9607;51.600;7.558;2024-01-11T12:55:32;23.35;;;13.80;;
18947;SDS011;9607;51.600;7.558;2024-01-11T12:58:04;17.05;;;11.35;;
18947;SDS011;9607;51.600;7.558;2024-01-11T13:00:31;18.95;;;12.20;;
18947;SDS011;9607;51.600;7.558;2024-01-11T13:02:58;18.08;;;12.05;;
18947;SDS011;9607;51.600;7.558;2024-01-11T13:05:25;18.08;;;11.52;;
18947;SDS011;9607;51.600;7.558;2024-01-11T13:07:52;22.20;;;12.13;;
18947;SDS011;9607;51.600;7.558;2024-01-11T13:10:18;21.15;;;13.20;;
18947;SDS011;9607;51.600;7.558;2024-01-11T13:12:45;22.98;;;14.23;;
18947;SDS011;9607;51.600;7.558;2024-01-11T13:15:14;23.73;;;13.07;;
18947;SDS011;9607;51.600;7.558;2024-01-11T13:17:40;22.42;;;12.93;;
18947;SDS011;9607;51.600;7.558;2024-01-11T13:20:07;20.77;;;12.35;;
18947;SDS011;9607;51.600;7.558;2024-01-11T13:22:35;19.55;;;11.85;;
18947;SDS011;9607;51.600;7.558;2024-01-11T13:25:01;17.23;;;11.20;;
18947;SDS011;9607;51.600;7.558;2024-01-11T13:27:29;16.73;;;11.05;;
18947;SDS011;9607;51.600;7.558;2024-01-11T13:29:57;19.35;;;11.38;;
18947;SDS011;9607;51.600;7.558;2024-01-11T13:32:25;17.23;;;11.00;;
18947;SDS011;9607;51.600;7.558;2024-01-11T13:34:52;18.30;;;9.25;;
18947;SDS011;9607;51.600;7.558;2024-01-11T13:37:19;17.58;;;9.30;;
18947;SDS011;9607;51.600;7.558;2024-01-11T13:39:46;16.88;;;9.57;;
18947;SDS011;9607;51.600;7.558;2024-01-11T13:42:13;18.27;;;9.77;;
18947;SDS011;9607;51.600;7.558;2024-01-11T13:44:41;19.42;;;10.55;;
18947;SDS011;9607;51.600;7.558;2024-01-11T13:47:08;15.43;;;9.35;;
18947;SDS011;9607;51.600;7.558;2024-01-11T13:49:36;16.40;;;9.50;;
18947;SDS011;9607;51.600;7.558;2024-01-11T13:52:03;13.73;;;8.70;;
18947;SDS011;9607;51.600;7.558;2024-01-11T13:54:31;17.23;;;9.35;;
18947;SDS011;9607;51.600;7.558;2024-01-11T13:56:57;12.93;;;8.77;;
18947;SDS011;9607;51.600;7.558;2024-01-11T13:59:25;15.65;;;9.00;;
18947;SDS011;9607;51.600;7.558;2024-01-11T14:01:52;13.13;;;8.43;;
18947;SDS011;9607;51.600;7.558;2024-01-11T14:04:18;11.90;;;7.97;;
18947;SDS011;9607;51.600;7.558;2024-01-11T14:06:49;11.00;;;6.15;;
18947;SDS011;9607;51.600;7.558;2024-01-11T14:09:16;11.07;;;5.78;;
18947;SDS011;9607;51.600;7.558;2024-01-11T14:11:43;13.75;;;6.85;;
18947;SDS011;9607;51.600;7.558;2024-01-11T14:14:10;10.35;;;6.15;;
18947;SDS011;9607;51.600;7.558;2024-01-11T14:16:36;11.75;;;6.75;;
18947;SDS011;9607;51.600;7.558;2024-01-11T14:19:03;10.50;;;5.93;;
18947;SDS011;9607;51.600;7.558;2024-01-11T14:21:30;8.75;;;5.57;;
18947;SDS011;9607;51.600;7.558;2024-01-11T14:23:58;8.82;;;5.30;;
18947;SDS011;9607;51.600;7.558;2024-01-11T14:26:25;9.52;;;5.40;;
18947;SDS011;9607;51.600;7.558;2024-01-11T14:28:51;11.55;;;6.22;;
18947;SDS011;9607;51.600;7.558;2024-01-11T14:31:19;8.32;;;5.65;;
18947;SDS011;9607;51.600;7.558;2024-01-11T14:33:46;9.82;;;4.88;;
18947;SDS011;9607;51.600;7.558;2024-01-11T14:36:13;8.95;;;5.40;;
18947;SDS011;9607;51.600;7.558;2024-01-11T14:38:40;9.35;;;5.65;;
18947;SDS011;9607;51.600;7.558;2024-01-11T14:41:09;11.90;;;6.53;;